sensor_id;sensor_type;location;lat;lon;timestamp;pressure;altitude;pressure_sealevel;temperature;humidity
83264;BME280;73156;50.988;11.034;2023-12-29T00:01:53;99015.22;;;22.22;35.33
83264;BME280;73156;50.988;11.034;2023-12-29T00:04:18;99009.91;;;22.26;34.71
83264;BME280;73156;50.988;11.034;2023-12-29T00:06:44;99008.75;;;22.32;34.62
83264;BME280;73156;50.988;11.034;2023-12-29T00:09:09;99000.38;;;22.17;34.70
83264;BME280;73156;50.988;11.034;2023-12-29T00:11:34;98989.19;;;22.22;34.86
83264;BME280;73156;50.988;11.034;2023-12-29T00:14:00;98983.56;;;22.17;34.81
83264;BME280;73156;50.988;11.034;2023-12-29T00:16:27;98978.53;;;22.14;35.05
83264;BME280;73156;50.988;11.034;2023-12-29T00:18:52;98980.16;;;22.25;34.64
83264;BME280;73156;50.988;11.034;2023-12-29T00:21:18;98973.75;;;22.24;34.98
83264;BME280;73156;50.988;11.034;2023-12-29T00:23:43;98971.19;;;22.28;34.81
83264;BME280;73156;50.988;11.034;2023-12-29T00:26:08;98976.25;;;22.21;34.89
83264;BME280;73156;50.988;11.034;2023-12-29T00:28:34;98976.56;;;22.24;34.72
83264;BME280;73156;50.988;11.034;2023-12-29T00:31:01;98963.66;;;22.18;34.95
83264;BME280;73156;50.988;11.034;2023-12-29T00:33:26;98967.03;;;22.20;35.10
83264;BME280;73156;50.988;11.034;2023-12-29T00:35:52;98959.16;;;22.32;34.75
83264;BME280;73156;50.988;11.034;2023-12-29T00:38:17;98957.75;;;22.25;34.51
83264;BME280;73156;50.988;11.034;2023-12-29T00:40:43;98947.41;;;22.25;34.73
83264;BME280;73156;50.988;11.034;2023-12-29T00:43:08;98941.25;;;22.18;34.73
83264;BME280;73156;50.988;11.034;2023-12-29T00:45:33;98948.53;;;22.24;34.49
83264;BME280;73156;50.988;11.034;2023-12-29T00:48:01;98932.03;;;22.13;34.88
83264;BME280;73156;50.988;11.034;2023-12-29T00:50:27;98939.31;;;22.09;35.26
83264;BME280;73156;50.988;11.034;2023-12-29T00:52:52;98931.78;;;22.09;35.37
83264;BME280;73156;50.988;11.034;2023-12-29T00:55:17;98937.66;;;22.08;35.16
83264;BME280;73156;50.988;11.034;2023-12-29T00:57:43;98935.38;;;22.10;35.13
83264;BME280;73156;50.988;11.034;2023-12-29T01:00:11;98920.28;;;22.11;35.14
83264;BME280;73156;50.988;11.034;2023-12-29T01:02:37;98919.69;;;22.19;34.84
83264;BME280;73156;50.988;11.034;2023-12-29T01:05:02;98906.75;;;22.28;34.71
83264;BME280;73156;50.988;11.034;2023-12-29T01:07:27;98891.41;;;22.10;35.14
83264;BME280;73156;50.988;11.034;2023-12-29T01:09:53;98890.56;;;22.15;34.94
83264;BME280;73156;50.988;11.034;2023-12-29T01:12:18;98893.63;;;22.23;34.86
83264;BME280;73156;50.988;11.034;2023-12-29T01:14:43;98906.78;;;22.23;34.88
83264;BME280;73156;50.988;11.034;2023-12-29T01:17:08;98895.28;;;22.24;34.86
83264;BME280;73156;50.988;11.034;2023-12-29T01:19:34;98879.81;;;22.37;34.81
83264;BME280;73156;50.988;11.034;2023-12-29T01:21:59;98890.50;;;22.30;34.81
83264;BME280;73156;50.988;11.034;2023-12-29T01:24:24;98892.16;;;22.31;34.60
83264;BME280;73156;50.988;11.034;2023-12-29T01:26:49;98868.94;;;22.25;34.74
83264;BME280;73156;50.988;11.034;2023-12-29T01:29:15;98884.69;;;22.11;34.87
83264;BME280;73156;50.988;11.034;2023-12-29T01:31:40;98889.13;;;22.22;34.90
83264;BME280;73156;50.988;11.034;2023-12-29T01:34:05;98879.03;;;22.21;34.84
83264;BME280;73156;50.988;11.034;2023-12-29T01:36:30;98866.97;;;22.21;34.75
83264;BME280;73156;50.988;11.034;2023-12-29T01:38:56;98878.19;;;22.21;34.75
83264;BME280;73156;50.988;11.034;2023-12-29T01:41:22;98881.28;;;22.24;34.87
83264;BME280;73156;50.988;11.034;2023-12-29T01:46:27;98882.69;;;22.22;34.79
83264;BME280;73156;50.988;11.034;2023-12-29T01:48:53;98886.59;;;22.21;34.65
83264;BME280;73156;50.988;11.034;2023-12-29T01:51:20;98882.13;;;22.20;34.87
83264;BME280;73156;50.988;11.034;2023-12-29T01:53:47;98888.28;;;22.17;34.70
83264;BME280;73156;50.988;11.034;2023-12-29T01:56:13;98865.88;;;22.17;34.77
83264;BME280;73156;50.988;11.034;2023-12-29T01:58:39;98870.06;;;22.19;34.92
83264;BME280;73156;50.988;11.034;2023-12-29T02:01:04;98861.34;;;22.31;34.53
83264;BME280;73156;50.988;11.034;2023-12-29T02:03:31;98859.66;;;22.25;34.80
83264;BME280;73156;50.988;11.034;2023-12-29T02:05:57;98866.44;;;22.19;34.81
83264;BME280;73156;50.988;11.034;2023-12-29T02:08:23;98867.53;;;22.23;34.83
83264;BME280;73156;50.988;11.034;2023-12-29T02:10:49;98873.44;;;22.21;34.70
83264;BME280;73156;50.988;11.034;2023-12-29T02:13:14;98870.34;;;22.23;34.78
83264;BME280;73156;50.988;11.034;2023-12-29T02:15:40;98867.63;;;22.08;34.98
83264;BME280;73156;50.988;11.034;2023-12-29T02:18:06;98873.41;;;22.26;35.08
83264;BME280;73156;50.988;11.034;2023-12-29T02:20:33;98860.53;;;22.25;34.66
83264;BME280;73156;50.988;11.034;2023-12-29T02:22:58;98862.44;;;22.35;34.45
83264;BME280;73156;50.988;11.034;2023-12-29T02:25:23;98867.25;;;22.24;34.59
83264;BME280;73156;50.988;11.034;2023-12-29T02:27:52;98851.22;;;22.35;34.49
83264;BME280;73156;50.988;11.034;2023-12-29T02:30:43;98859.66;;;22.25;34.74
83264;BME280;73156;50.988;11.034;2023-12-29T02:33:14;98854.66;;;22.22;34.79
83264;BME280;73156;50.988;11.034;2023-12-29T02:35:43;98842.88;;;22.25;34.74
83264;BME280;73156;50.988;11.034;2023-12-29T02:38:09;98829.78;;;22.10;34.67
83264;BME280;73156;50.988;11.034;2023-12-29T02:40:35;98837.56;;;22.23;34.77
83264;BME280;73156;50.988;11.034;2023-12-29T02:43:01;98842.03;;;22.24;34.85
83264;BME280;73156;50.988;11.034;2023-12-29T02:45:26;98843.19;;;22.18;34.80
83264;BME280;73156;50.988;11.034;2023-12-29T02:47:52;98841.00;;;22.10;34.89
83264;BME280;73156;50.988;11.034;2023-12-29T02:50:18;98831.41;;;22.21;34.70
83264;BME280;73156;50.988;11.034;2023-12-29T02:52:43;98827.81;;;22.11;34.90
83264;BME280;73156;50.988;11.034;2023-12-29T02:55:09;98826.56;;;22.32;34.63
83264;BME280;73156;50.988;11.034;2023-12-29T02:57:34;98817.91;;;22.28;34.72
83264;BME280;73156;50.988;11.034;2023-12-29T02:59:59;98826.38;;;22.18;34.82
83264;BME280;73156;50.988;11.034;2023-12-29T03:02:25;98815.50;;;22.12;34.96
83264;BME280;73156;50.988;11.034;2023-12-29T03:04:50;98811.59;;;22.08;35.30
83264;BME280;73156;50.988;11.034;2023-12-29T03:07:16;98809.88;;;22.12;35.04
83264;BME280;73156;50.988;11.034;2023-12-29T03:09:41;98814.34;;;22.18;34.54
83264;BME280;73156;50.988;11.034;2023-12-29T03:12:06;98810.13;;;22.20;34.81
83264;BME280;73156;50.988;11.034;2023-12-29T03:14:32;98814.31;;;22.23;34.61
83264;BME280;73156;50.988;11.034;2023-12-29T03:16:58;98809.56;;;22.18;34.82
83264;BME280;73156;50.988;11.034;2023-12-29T03:19:23;98816.00;;;22.19;34.72
83264;BME280;73156;50.988;11.034;2023-12-29T03:21:48;98803.34;;;22.26;34.80
83264;BME280;73156;50.988;11.034;2023-12-29T03:24:14;98803.44;;;22.16;34.60
83264;BME280;73156;50.988;11.034;2023-12-29T03:26:39;98812.66;;;22.17;35.00
83264;BME280;73156;50.988;11.034;2023-12-29T03:29:04;98801.44;;;22.17;34.62
83264;BME280;73156;50.988;11.034;2023-12-29T03:31:29;98802.81;;;22.19;34.67
83264;BME280;73156;50.988;11.034;2023-12-29T03:33:55;98800.53;;;22.26;34.63
83264;BME280;73156;50.988;11.034;2023-12-29T03:36:20;98820.09;;;22.36;34.54
83264;BME280;73156;50.988;11.034;2023-12-29T03:38:45;98807.50;;;22.34;34.29
83264;BME280;73156;50.988;11.034;2023-12-29T03:41:10;98821.53;;;22.34;34.44
83264;BME280;73156;50.988;11.034;2023-12-29T03:43:36;98825.22;;;22.24;34.68
83264;BME280;73156;50.988;11.034;2023-12-29T03:46:01;98815.44;;;22.22;34.69
83264;BME280;73156;50.988;11.034;2023-12-29T03:48:26;98805.06;;;22.22;34.93
83264;BME280;73156;50.988;11.034;2023-12-29T03:50:52;98808.44;;;22.19;34.77
83264;BME280;73156;50.988;11.034;2023-12-29T03:53:17;98803.44;;;22.11;34.98
83264;BME280;73156;50.988;11.034;2023-12-29T03:55:44;98802.28;;;22.17;34.60
83264;BME280;73156;50.988;11.034;2023-12-29T03:58:09;98800.03;;;22.19;34.80
83264;BME280;73156;50.988;11.034;2023-12-29T04:00:35;98797.22;;;22.19;34.63
83264;BME280;73156;50.988;11.034;2023-12-29T04:03:00;98785.44;;;22.22;34.67
83264;BME280;73156;50.988;11.034;2023-12-29T04:05:26;98773.59;;;22.30;34.61
83264;BME280;73156;50.988;11.034;2023-12-29T04:07:51;98776.16;;;22.27;34.58
83264;BME280;73156;50.988;11.034;2023-12-29T04:10:16;98786.31;;;22.18;34.86
83264;BME280;73156;50.988;11.034;2023-12-29T04:12:42;98787.44;;;22.17;34.42
83264;BME280;73156;50.988;11.034;2023-12-29T04:15:07;98788.28;;;22.17;34.59
83264;BME280;73156;50.988;11.034;2023-12-29T04:17:33;98782.69;;;22.17;34.70
83264;BME280;73156;50.988;11.034;2023-12-29T04:19:58;98797.16;;;22.29;34.48
83264;BME280;73156;50.988;11.034;2023-12-29T04:22:25;98787.41;;;22.22;34.71
83264;BME280;73156;50.988;11.034;2023-12-29T04:24:50;98767.00;;;22.11;34.58
83264;BME280;73156;50.988;11.034;2023-12-29T04:27:15;98777.31;;;22.26;34.45
83264;BME280;73156;50.988;11.034;2023-12-29T04:29:40;98788.00;;;22.19;34.65
83264;BME280;73156;50.988;11.034;2023-12-29T04:32:06;98789.38;;;22.21;34.67
83264;BME280;73156;50.988;11.034;2023-12-29T04:34:31;98792.47;;;22.20;34.54
83264;BME280;73156;50.988;11.034;2023-12-29T04:36:56;98779.72;;;22.42;34.37
83264;BME280;73156;50.988;11.034;2023-12-29T04:39:21;98760.25;;;22.17;34.80
83264;BME280;73156;50.988;11.034;2023-12-29T04:41:47;98752.66;;;22.23;34.63
83264;BME280;73156;50.988;11.034;2023-12-29T04:44:12;98745.06;;;22.28;34.46
83264;BME280;73156;50.988;11.034;2023-12-29T04:46:37;98745.13;;;22.18;34.64
83264;BME280;73156;50.988;11.034;2023-12-29T04:49:02;98760.78;;;22.19;34.63
83264;BME280;73156;50.988;11.034;2023-12-29T04:51:28;98772.31;;;22.18;34.59
83264;BME280;73156;50.988;11.034;2023-12-29T04:53:53;98777.91;;;22.18;34.53
83264;BME280;73156;50.988;11.034;2023-12-29T04:56:18;98779.06;;;22.12;34.74
83264;BME280;73156;50.988;11.034;2023-12-29T04:58:44;98781.59;;;22.08;34.91
83264;BME280;73156;50.988;11.034;2023-12-29T05:01:09;98779.09;;;22.07;35.09
83264;BME280;73156;50.988;11.034;2023-12-29T05:03:34;98769.47;;;22.23;34.56
83264;BME280;73156;50.988;11.034;2023-12-29T05:05:59;98759.41;;;22.17;34.69
83264;BME280;73156;50.988;11.034;2023-12-29T05:08:25;98779.59;;;22.19;34.72
83264;BME280;73156;50.988;11.034;2023-12-29T05:10:50;98756.03;;;22.20;34.70
83264;BME280;73156;50.988;11.034;2023-12-29T05:13:15;98757.50;;;22.07;34.64
83264;BME280;73156;50.988;11.034;2023-12-29T05:15:41;98763.69;;;22.04;34.80
83264;BME280;73156;50.988;11.034;2023-12-29T05:18:06;98762.88;;;22.04;35.00
83264;BME280;73156;50.988;11.034;2023-12-29T05:20:32;98754.69;;;22.12;35.03
83264;BME280;73156;50.988;11.034;2023-12-29T05:22:57;98758.84;;;22.20;34.90
83264;BME280;73156;50.988;11.034;2023-12-29T05:25:23;98761.63;;;22.20;34.75
83264;BME280;73156;50.988;11.034;2023-12-29T05:27:49;98753.81;;;22.22;34.51
83264;BME280;73156;50.988;11.034;2023-12-29T05:30:14;98756.09;;;22.15;35.02
83264;BME280;73156;50.988;11.034;2023-12-29T05:32:40;98747.31;;;22.26;34.49
83264;BME280;73156;50.988;11.034;2023-12-29T05:35:05;98744.88;;;22.10;34.59
83264;BME280;73156;50.988;11.034;2023-12-29T05:37:31;98745.97;;;22.14;34.64
83264;BME280;73156;50.988;11.034;2023-12-29T05:39:56;98736.69;;;22.23;34.61
83264;BME280;73156;50.988;11.034;2023-12-29T05:42:21;98654.94;;;21.73;34.71
83264;BME280;73156;50.988;11.034;2023-12-29T05:44:46;98742.31;;;22.23;34.58
83264;BME280;73156;50.988;11.034;2023-12-29T05:47:12;98752.00;;;22.36;34.43
83264;BME280;73156;50.988;11.034;2023-12-29T05:49:37;98757.13;;;22.29;34.26
83264;BME280;73156;50.988;11.034;2023-12-29T05:52:07;98749.06;;;22.17;34.66
83264;BME280;73156;50.988;11.034;2023-12-29T05:54:33;98750.75;;;22.13;34.82
83264;BME280;73156;50.988;11.034;2023-12-29T05:56:59;98757.47;;;22.17;34.73
83264;BME280;73156;50.988;11.034;2023-12-29T05:59:24;98756.31;;;22.18;34.75
83264;BME280;73156;50.988;11.034;2023-12-29T06:01:49;98760.50;;;22.21;34.65
83264;BME280;73156;50.988;11.034;2023-12-29T06:04:14;98751.84;;;22.17;34.74
83264;BME280;73156;50.988;11.034;2023-12-29T06:06:42;98745.69;;;22.20;34.71
83264;BME280;73156;50.988;11.034;2023-12-29T06:09:09;98746.50;;;22.21;34.83
83264;BME280;73156;50.988;11.034;2023-12-29T06:11:34;98761.41;;;22.16;34.70
83264;BME280;73156;50.988;11.034;2023-12-29T06:14:00;98764.41;;;22.25;34.41
83264;BME280;73156;50.988;11.034;2023-12-29T06:16:25;98775.16;;;22.08;34.77
83264;BME280;73156;50.988;11.034;2023-12-29T06:18:52;98783.28;;;22.09;34.77
83264;BME280;73156;50.988;11.034;2023-12-29T06:21:17;98793.38;;;22.10;34.70
83264;BME280;73156;50.988;11.034;2023-12-29T06:23:42;98800.00;;;22.24;34.69
83264;BME280;73156;50.988;11.034;2023-12-29T06:26:18;98795.22;;;22.25;34.57
83264;BME280;73156;50.988;11.034;2023-12-29T06:28:44;98797.25;;;22.14;34.77
83264;BME280;73156;50.988;11.034;2023-12-29T06:31:10;98799.72;;;22.21;34.53
83264;BME280;73156;50.988;11.034;2023-12-29T06:33:35;98803.63;;;22.25;34.80
83264;BME280;73156;50.988;11.034;2023-12-29T06:36:01;98803.13;;;22.18;34.90
83264;BME280;73156;50.988;11.034;2023-12-29T06:38:26;98811.84;;;22.16;34.70
83264;BME280;73156;50.988;11.034;2023-12-29T06:40:51;98819.13;;;22.12;34.78
83264;BME280;73156;50.988;11.034;2023-12-29T06:43:16;98809.22;;;22.30;34.52
83264;BME280;73156;50.988;11.034;2023-12-29T06:45:42;98808.75;;;22.13;34.78
83264;BME280;73156;50.988;11.034;2023-12-29T06:48:07;98805.38;;;22.16;34.77
83264;BME280;73156;50.988;11.034;2023-12-29T06:50:32;98803.19;;;22.03;34.81
83264;BME280;73156;50.988;11.034;2023-12-29T06:52:57;98804.84;;;22.09;34.80
83264;BME280;73156;50.988;11.034;2023-12-29T06:55:24;98815.72;;;22.15;34.66
83264;BME280;73156;50.988;11.034;2023-12-29T06:57:50;98816.34;;;22.12;34.86
83264;BME280;73156;50.988;11.034;2023-12-29T07:00:15;98813.81;;;22.06;34.84
83264;BME280;73156;50.988;11.034;2023-12-29T07:02:41;98816.06;;;22.09;34.71
83264;BME280;73156;50.988;11.034;2023-12-29T07:05:06;98824.50;;;21.99;34.89
83264;BME280;73156;50.988;11.034;2023-12-29T07:07:32;98832.34;;;22.02;35.24
83264;BME280;73156;50.988;11.034;2023-12-29T07:09:57;98827.31;;;22.04;34.92
83264;BME280;73156;50.988;11.034;2023-12-29T07:12:22;98832.91;;;21.99;35.11
83264;BME280;73156;50.988;11.034;2023-12-29T07:14:47;98817.47;;;22.06;34.71
83264;BME280;73156;50.988;11.034;2023-12-29T07:17:13;98832.94;;;21.94;35.22
83264;BME280;73156;50.988;11.034;2023-12-29T07:19:38;98825.06;;;22.01;35.16
83264;BME280;73156;50.988;11.034;2023-12-29T07:22:04;98822.88;;;21.88;35.15
83264;BME280;73156;50.988;11.034;2023-12-29T07:24:32;98832.09;;;21.93;35.08
83264;BME280;73156;50.988;11.034;2023-12-29T07:26:58;98824.00;;;21.87;35.43
83264;BME280;73156;50.988;11.034;2023-12-29T07:29:23;98823.97;;;21.92;35.13
83264;BME280;73156;50.988;11.034;2023-12-29T07:31:48;98817.78;;;22.00;35.31
83264;BME280;73156;50.988;11.034;2023-12-29T07:34:14;98812.47;;;21.93;35.07
83264;BME280;73156;50.988;11.034;2023-12-29T07:36:39;98825.66;;;21.93;35.08
83264;BME280;73156;50.988;11.034;2023-12-29T07:39:05;98809.44;;;21.90;35.17
83264;BME280;73156;50.988;11.034;2023-12-29T07:41:31;98809.97;;;21.97;35.13
83264;BME280;73156;50.988;11.034;2023-12-29T07:43:56;98804.31;;;22.02;35.03
83264;BME280;73156;50.988;11.034;2023-12-29T07:46:25;98814.41;;;22.03;35.10
83264;BME280;73156;50.988;11.034;2023-12-29T07:48:51;98825.31;;;22.09;34.72
83264;BME280;73156;50.988;11.034;2023-12-29T07:51:17;98822.78;;;22.08;34.81
83264;BME280;73156;50.988;11.034;2023-12-29T07:53:42;98820.81;;;22.13;34.69
83264;BME280;73156;50.988;11.034;2023-12-29T07:56:10;98811.84;;;22.11;34.76
83264;BME280;73156;50.988;11.034;2023-12-29T07:58:35;98811.22;;;22.24;34.66
83264;BME280;73156;50.988;11.034;2023-12-29T08:01:00;98814.31;;;22.23;34.40
83264;BME280;73156;50.988;11.034;2023-12-29T08:03:25;98799.72;;;22.26;34.70
83264;BME280;73156;50.988;11.034;2023-12-29T08:05:51;98797.72;;;22.31;34.40
83264;BME280;73156;50.988;11.034;2023-12-29T08:08:17;98803.63;;;22.30;34.33
83264;BME280;73156;50.988;11.034;2023-12-29T08:10:42;98809.50;;;22.28;34.40
83264;BME280;73156;50.988;11.034;2023-12-29T08:13:07;98806.72;;;22.28;34.42
83264;BME280;73156;50.988;11.034;2023-12-29T08:15:34;98817.91;;;22.28;34.53
83264;BME280;73156;50.988;11.034;2023-12-29T08:18:00;98809.69;;;22.42;34.49
83264;BME280;73156;50.988;11.034;2023-12-29T08:20:25;98811.47;;;22.33;34.68
83264;BME280;73156;50.988;11.034;2023-12-29T08:22:50;98809.69;;;22.42;34.10
83264;BME280;73156;50.988;11.034;2023-12-29T08:25:16;98821.19;;;22.40;34.26
83264;BME280;73156;50.988;11.034;2023-12-29T08:27:41;98821.47;;;22.49;34.07
83264;BME280;73156;50.988;11.034;2023-12-29T08:30:07;98812.22;;;22.43;34.34
83264;BME280;73156;50.988;11.034;2023-12-29T08:32:33;98826.47;;;22.47;34.25
83264;BME280;73156;50.988;11.034;2023-12-29T08:34:58;98839.09;;;22.55;33.87
83264;BME280;73156;50.988;11.034;2023-12-29T08:37:24;98828.75;;;22.45;34.32
83264;BME280;73156;50.988;11.034;2023-12-29T08:39:49;98839.13;;;22.44;34.22
83264;BME280;73156;50.988;11.034;2023-12-29T08:42:15;98828.97;;;22.59;33.84
83264;BME280;73156;50.988;11.034;2023-12-29T08:44:40;98822.03;;;22.51;34.20
83264;BME280;73156;50.988;11.034;2023-12-29T08:47:06;98807.47;;;22.44;34.06
83264;BME280;73156;50.988;11.034;2023-12-29T08:49:36;98834.00;;;22.62;33.60
83264;BME280;73156;50.988;11.034;2023-12-29T08:52:02;98833.78;;;22.53;34.02
83264;BME280;73156;50.988;11.034;2023-12-29T08:54:27;98813.59;;;22.46;34.03
83264;BME280;73156;50.988;11.034;2023-12-29T08:56:52;98828.09;;;22.63;33.84
83264;BME280;73156;50.988;11.034;2023-12-29T08:59:18;98827.88;;;22.55;34.09
83264;BME280;73156;50.988;11.034;2023-12-29T09:01:43;98838.28;;;22.49;33.90
83264;BME280;73156;50.988;11.034;2023-12-29T09:04:08;98824.50;;;22.58;33.78
83264;BME280;73156;50.988;11.034;2023-12-29T09:06:33;98812.44;;;22.57;34.10
83264;BME280;73156;50.988;11.034;2023-12-29T09:08:59;98802.28;;;22.66;33.62
83264;BME280;73156;50.988;11.034;2023-12-29T09:11:25;98820.78;;;22.67;33.80
83264;BME280;73156;50.988;11.034;2023-12-29T09:13:51;98821.69;;;22.58;33.88
83264;BME280;73156;50.988;11.034;2023-12-29T09:16:17;98832.56;;;22.64;34.04
83264;BME280;73156;50.988;11.034;2023-12-29T09:18:42;98839.03;;;22.65;33.58
83264;BME280;73156;50.988;11.034;2023-12-29T09:21:07;98829.81;;;22.59;33.99
83264;BME280;73156;50.988;11.034;2023-12-29T09:23:32;98835.94;;;22.66;33.88
83264;BME280;73156;50.988;11.034;2023-12-29T09:25:59;98832.91;;;22.58;33.99
83264;BME280;73156;50.988;11.034;2023-12-29T09:28:24;98825.84;;;22.65;33.94
83264;BME280;73156;50.988;11.034;2023-12-29T09:30:49;98827.44;;;22.76;33.62
83264;BME280;73156;50.988;11.034;2023-12-29T09:33:15;98826.56;;;22.81;33.47
83264;BME280;73156;50.988;11.034;2023-12-29T09:35:40;98831.31;;;22.80;34.01
83264;BME280;73156;50.988;11.034;2023-12-29T09:38:05;98828.53;;;22.80;33.32
83264;BME280;73156;50.988;11.034;2023-12-29T09:40:31;98835.81;;;22.81;33.61
83264;BME280;73156;50.988;11.034;2023-12-29T09:42:56;98837.56;;;22.72;33.67
83264;BME280;73156;50.988;11.034;2023-12-29T09:45:25;98839.84;;;22.65;33.83
83264;BME280;73156;50.988;11.034;2023-12-29T09:47:51;98853.34;;;22.63;33.84
83264;BME280;73156;50.988;11.034;2023-12-29T09:50:21;98849.91;;;22.71;33.80
83264;BME280;73156;50.988;11.034;2023-12-29T09:52:48;98849.97;;;22.66;33.73
83264;BME280;73156;50.988;11.034;2023-12-29T09:55:15;98837.31;;;22.69;33.85
83264;BME280;73156;50.988;11.034;2023-12-29T09:57:40;98848.19;;;22.75;33.61
83264;BME280;73156;50.988;11.034;2023-12-29T10:00:10;98826.56;;;22.81;33.45
83264;BME280;73156;50.988;11.034;2023-12-29T10:02:36;98831.94;;;22.77;33.53
83264;BME280;73156;50.988;11.034;2023-12-29T10:05:03;98825.44;;;22.82;33.50
83264;BME280;73156;50.988;11.034;2023-12-29T10:07:32;98832.47;;;22.79;33.45
83264;BME280;73156;50.988;11.034;2023-12-29T10:10:00;98831.88;;;22.82;33.44
83264;BME280;73156;50.988;11.034;2023-12-29T10:12:27;98820.94;;;22.81;33.48
83264;BME280;73156;50.988;11.034;2023-12-29T10:20:50;98824.06;;;22.79;33.58
83264;BME280;73156;50.988;11.034;2023-12-29T10:23:24;98824.59;;;22.81;33.28
83264;BME280;73156;50.988;11.034;2023-12-29T10:25:52;98809.75;;;22.81;33.33
83264;BME280;73156;50.988;11.034;2023-12-29T10:28:17;98814.81;;;22.79;33.34
83264;BME280;73156;50.988;11.034;2023-12-29T10:30:43;98815.34;;;22.81;33.60
83264;BME280;73156;50.988;11.034;2023-12-29T10:33:08;98811.75;;;22.75;34.07
83264;BME280;73156;50.988;11.034;2023-12-29T10:35:35;98810.59;;;22.76;33.46
83264;BME280;73156;50.988;11.034;2023-12-29T10:38:09;98813.41;;;22.76;33.66
83264;BME280;73156;50.988;11.034;2023-12-29T10:40:35;98793.59;;;22.63;33.81
83264;BME280;73156;50.988;11.034;2023-12-29T10:43:00;98800.88;;;22.69;33.71
83264;BME280;73156;50.988;11.034;2023-12-29T10:45:31;98806.19;;;22.70;33.89
83264;BME280;73156;50.988;11.034;2023-12-29T10:47:59;98793.03;;;22.66;33.71
83264;BME280;73156;50.988;11.034;2023-12-29T10:50:25;98787.63;;;22.74;33.95
83264;BME280;73156;50.988;11.034;2023-12-29T10:52:50;98784.50;;;22.81;33.62
83264;BME280;73156;50.988;11.034;2023-12-29T10:55:15;98780.84;;;22.80;33.22
83264;BME280;73156;50.988;11.034;2023-12-29T10:57:41;98777.84;;;22.72;33.63
83264;BME280;73156;50.988;11.034;2023-12-29T11:00:07;98775.28;;;22.75;33.64
83264;BME280;73156;50.988;11.034;2023-12-29T11:02:34;98776.16;;;22.71;33.79
83264;BME280;73156;50.988;11.034;2023-12-29T11:05:03;98776.94;;;22.76;33.66
83264;BME280;73156;50.988;11.034;2023-12-29T11:07:37;98771.84;;;22.83;33.55
83264;BME280;73156;50.988;11.034;2023-12-29T11:10:03;98758.81;;;22.69;33.52
83264;BME280;73156;50.988;11.034;2023-12-29T11:12:32;98774.69;;;22.78;33.57
83264;BME280;73156;50.988;11.034;2023-12-29T11:14:58;98764.69;;;22.67;33.79
83264;BME280;73156;50.988;11.034;2023-12-29T11:17:24;98777.75;;;22.82;33.45
83264;BME280;73156;50.988;11.034;2023-12-29T11:19:52;98768.81;;;22.75;33.78
83264;BME280;73156;50.988;11.034;2023-12-29T11:22:17;98769.84;;;22.89;33.37
83264;BME280;73156;50.988;11.034;2023-12-29T11:24:46;98765.16;;;22.79;33.80
83264;BME280;73156;50.988;11.034;2023-12-29T11:27:12;98768.00;;;22.74;33.51
83264;BME280;73156;50.988;11.034;2023-12-29T11:29:40;98761.25;;;22.75;33.65
83264;BME280;73156;50.988;11.034;2023-12-29T11:32:11;98749.41;;;22.83;33.40
83264;BME280;73156;50.988;11.034;2023-12-29T11:34:42;98760.75;;;22.73;33.51
83264;BME280;73156;50.988;11.034;2023-12-29T11:37:15;98768.81;;;22.80;33.68
83264;BME280;73156;50.988;11.034;2023-12-29T11:39:51;98749.25;;;22.70;33.54
83264;BME280;73156;50.988;11.034;2023-12-29T11:42:21;98756.22;;;22.77;33.64
83264;BME280;73156;50.988;11.034;2023-12-29T11:44:48;98758.72;;;22.79;33.47
83264;BME280;73156;50.988;11.034;2023-12-29T11:47:36;98759.63;;;22.69;33.82
83264;BME280;73156;50.988;11.034;2023-12-29T11:50:02;98769.72;;;22.70;34.00
83264;BME280;73156;50.988;11.034;2023-12-29T11:52:38;98744.16;;;22.77;33.67
83264;BME280;73156;50.988;11.034;2023-12-29T11:55:08;98753.94;;;22.79;33.66
83264;BME280;73156;50.988;11.034;2023-12-29T11:57:33;98737.38;;;22.83;33.22
83264;BME280;73156;50.988;11.034;2023-12-29T11:59:58;98734.88;;;22.76;33.80
83264;BME280;73156;50.988;11.034;2023-12-29T12:02:27;98726.44;;;22.81;33.54
83264;BME280;73156;50.988;11.034;2023-12-29T12:04:55;98716.69;;;22.74;33.67
83264;BME280;73156;50.988;11.034;2023-12-29T12:09:49;98726.88;;;22.65;33.87
83264;BME280;73156;50.988;11.034;2023-12-29T12:12:41;98722.72;;;22.57;33.96
83264;BME280;73156;50.988;11.034;2023-12-29T12:17:54;98723.59;;;22.52;34.20
83264;BME280;73156;50.988;11.034;2023-12-29T12:20:20;98714.66;;;22.51;34.27
83264;BME280;73156;50.988;11.034;2023-12-29T12:22:49;98707.72;;;22.38;34.00
83264;BME280;73156;50.988;11.034;2023-12-29T12:25:15;98712.53;;;22.32;34.53
83264;BME280;73156;50.988;11.034;2023-12-29T12:27:40;98717.88;;;22.29;34.76
83264;BME280;73156;50.988;11.034;2023-12-29T12:30:06;98709.44;;;22.34;34.67
83264;BME280;73156;50.988;11.034;2023-12-29T12:32:34;98720.69;;;22.29;34.52
83264;BME280;73156;50.988;11.034;2023-12-29T12:35:00;98715.38;;;22.22;34.69
83264;BME280;73156;50.988;11.034;2023-12-29T12:37:27;98705.56;;;22.25;34.70
83264;BME280;73156;50.988;11.034;2023-12-29T12:39:53;98700.03;;;22.15;34.77
83264;BME280;73156;50.988;11.034;2023-12-29T12:42:22;98710.91;;;22.21;34.91
83264;BME280;73156;50.988;11.034;2023-12-29T12:44:55;98708.13;;;22.21;35.07
83264;BME280;73156;50.988;11.034;2023-12-29T12:47:33;98695.47;;;22.24;34.69
83264;BME280;73156;50.988;11.034;2023-12-29T12:50:00;98688.25;;;22.18;34.80
83264;BME280;73156;50.988;11.034;2023-12-29T12:52:26;98699.13;;;22.24;34.72
83264;BME280;73156;50.988;11.034;2023-12-29T12:54:55;98708.06;;;22.31;34.76
83264;BME280;73156;50.988;11.034;2023-12-29T12:57:21;98711.38;;;22.33;34.60
83264;BME280;73156;50.988;11.034;2023-12-29T12:59:47;98713.09;;;22.29;34.83